createdAt,value
2018-04-25T00:02:20.539Z,95.60
2018-04-25T00:04:49.577Z,95.30
2018-04-25T00:07:17.880Z,95.20
2018-04-25T00:09:46.185Z,96.00
2018-04-25T00:12:14.557Z,95.90
2018-04-25T00:14:42.842Z,95.90
2018-04-25T00:17:11.899Z,95.90
2018-04-25T00:19:41.472Z,95.80
2018-04-25T00:22:10.500Z,95.70
2018-04-25T00:24:38.733Z,95.70
2018-04-25T00:27:07.070Z,95.90
2018-04-25T00:29:35.342Z,96.20
2018-04-25T00:32:03.626Z,95.90
2018-04-25T00:34:31.880Z,95.60
2018-04-25T00:37:00.153Z,95.80
2018-04-25T00:39:28.435Z,96.40
2018-04-25T00:41:56.734Z,96.60
2018-04-25T00:44:25.077Z,96.40
2018-04-25T00:46:53.290Z,96.90
2018-04-25T00:49:21.575Z,97.30
2018-04-25T00:51:50.621Z,96.80
2018-04-25T00:54:18.940Z,96.80
2018-04-25T00:56:47.986Z,97.20
2018-04-25T00:59:17.465Z,97.20
2018-04-25T01:01:46.502Z,97.60
2018-04-25T01:04:14.799Z,97.60
2018-04-25T01:06:43.077Z,97.40
2018-04-25T01:09:11.427Z,97.50
2018-04-25T01:11:39.784Z,97.20
2018-04-25T01:14:08.206Z,97.40
2018-04-25T01:16:37.329Z,97.00
2018-04-25T01:19:06.365Z,97.10
2018-04-25T01:21:35.685Z,97.10
2018-04-25T01:24:03.936Z,97.10
2018-04-25T01:26:32.235Z,97.20
2018-04-25T01:29:03.217Z,97.30
2018-04-25T01:31:43.239Z,97.30
2018-04-25T01:48:20.643Z,97.90
2018-04-25T01:50:58.437Z,97.80
2018-04-25T01:53:39.310Z,97.80
2018-04-25T01:56:25.451Z,97.80
2018-04-25T01:59:11.824Z,97.90
2018-04-25T02:01:45.579Z,97.90
2018-04-25T02:04:13.616Z,97.90
2018-04-25T02:06:41.848Z,98.10
2018-04-25T02:09:11.648Z,98.00
2018-04-25T02:11:40.138Z,98.00
2018-04-25T02:14:09.189Z,98.00
2018-04-25T02:16:37.470Z,98.00
2018-04-25T02:19:05.843Z,98.40
2018-04-25T02:21:34.136Z,98.10
2018-04-25T02:24:02.396Z,98.10
2018-04-25T02:26:30.671Z,98.10
2018-04-25T02:28:58.947Z,98.30
2018-04-25T02:31:27.720Z,98.20
2018-04-25T02:33:57.156Z,98.00
2018-04-25T02:36:26.129Z,98.20
2018-04-25T02:38:54.371Z,98.20
2018-04-25T02:41:23.405Z,98.10
2018-04-25T02:43:51.717Z,98.10
2018-04-25T02:46:19.993Z,98.30
2018-04-25T02:48:48.395Z,98.10
2018-04-25T02:51:17.402Z,98.20
2018-04-25T02:53:45.660Z,98.20
2018-04-25T02:56:15.599Z,98.20
2018-04-25T02:58:43.823Z,98.20
2018-04-25T03:01:12.181Z,98.30
2018-04-25T03:03:41.170Z,98.20
2018-04-25T03:06:10.188Z,98.20
2018-04-25T03:08:38.743Z,98.20
2018-04-25T03:11:07.017Z,98.10
2018-04-25T03:13:35.276Z,98.20
2018-04-25T03:16:05.007Z,98.30
2018-04-25T03:18:34.431Z,97.90
2018-04-25T03:21:02.720Z,97.90
2018-04-25T03:23:31.014Z,97.80
2018-04-25T03:26:01.217Z,97.90
2018-04-25T03:28:30.969Z,97.80
2018-04-25T03:30:59.214Z,97.80
2018-04-25T03:33:29.024Z,97.70
2018-04-25T03:35:57.289Z,97.70
2018-04-25T03:38:26.356Z,97.50
2018-04-25T03:40:54.623Z,97.50
2018-04-25T03:43:22.937Z,97.60
2018-04-25T03:45:51.205Z,97.60
2018-04-25T03:48:19.570Z,97.70
2018-04-25T03:50:47.851Z,97.60
2018-04-25T03:53:17.299Z,97.60
2018-04-25T03:55:47.116Z,97.70
2018-04-25T03:58:17.334Z,97.50
2018-04-25T04:00:46.388Z,97.50
2018-04-25T04:03:14.765Z,97.50
2018-04-25T04:05:43.113Z,97.50
2018-04-25T04:08:11.421Z,97.50
2018-04-25T04:10:40.852Z,97.60
2018-04-25T04:13:09.090Z,97.70
2018-04-25T04:15:37.456Z,97.50
2018-04-25T04:18:05.708Z,97.80
2018-04-25T04:20:34.023Z,97.80
2018-04-25T04:23:02.291Z,98.00
2018-04-25T04:25:30.574Z,97.90
2018-04-25T04:27:58.849Z,97.90
2018-04-25T04:30:27.132Z,97.80
2018-04-25T04:32:55.408Z,98.10
2018-04-25T04:35:23.706Z,97.60
2018-04-25T04:37:52.770Z,97.60
2018-04-25T04:40:21.071Z,97.50
2018-04-25T04:42:49.332Z,97.70
2018-04-25T04:45:17.688Z,97.50
2018-04-25T04:47:45.979Z,97.40
2018-04-25T04:50:14.266Z,97.50
2018-04-25T04:52:42.567Z,97.70
2018-04-25T04:55:11.607Z,97.90
2018-04-25T04:57:40.676Z,97.90
2018-04-25T05:00:08.947Z,98.00
2018-04-25T05:02:37.292Z,98.00
2018-04-25T05:05:06.373Z,98.00
2018-04-25T05:07:34.658Z,98.00
2018-04-25T05:10:04.167Z,98.20
2018-04-25T05:12:32.477Z,98.20
2018-04-25T05:15:01.427Z,98.20
2018-04-25T05:17:29.701Z,98.20
2018-04-25T05:19:58.026Z,98.10
2018-04-25T05:22:26.303Z,98.10
2018-04-25T05:24:54.635Z,98.20
2018-04-25T05:27:22.969Z,98.20
2018-04-25T05:29:51.246Z,98.10
2018-04-25T05:32:19.572Z,98.10
2018-04-25T05:34:47.908Z,98.40
2018-04-25T05:37:16.219Z,97.90
2018-04-25T05:39:44.514Z,98.40
2018-04-25T05:42:15.585Z,98.00
2018-04-25T05:44:43.878Z,98.00
2018-04-25T05:47:13.351Z,97.80
2018-04-25T05:49:42.405Z,97.40
2018-04-25T05:52:11.809Z,97.40
2018-04-25T05:54:40.105Z,97.20
2018-04-25T05:57:09.152Z,96.50
2018-04-25T05:59:37.472Z,96.50
2018-04-25T06:02:06.859Z,96.60
2018-04-25T06:04:35.133Z,96.30
2018-04-25T06:07:03.423Z,96.50
2018-04-25T06:09:31.718Z,96.00
2018-04-25T06:12:00.794Z,96.00
2018-04-25T06:14:29.825Z,95.70
2018-04-25T06:16:58.875Z,96.10
2018-04-25T06:19:27.175Z,96.10
2018-04-25T06:21:56.322Z,96.10
2018-04-25T06:24:24.519Z,96.10
2018-04-25T06:26:52.802Z,96.10
2018-04-25T06:29:21.087Z,95.90
2018-04-25T06:31:49.465Z,95.90
2018-04-25T06:34:17.732Z,96.10
2018-04-25T06:36:46.029Z,93.50
2018-04-25T06:39:15.061Z,91.80
2018-04-25T06:41:43.349Z,91.80
2018-04-25T06:44:11.613Z,92.10
2018-04-25T06:46:40.199Z,92.10
2018-04-25T06:49:08.586Z,92.50
2018-04-25T06:51:36.868Z,92.50
2018-04-25T06:54:05.166Z,92.30
2018-04-25T06:56:33.554Z,92.80
2018-04-25T06:59:03.006Z,92.50
2018-04-25T07:01:31.281Z,92.50
2018-04-25T07:04:00.378Z,92.50
2018-04-25T07:06:28.617Z,92.90
2018-04-25T07:08:57.623Z,93.10
2018-04-25T07:11:25.950Z,93.10
2018-04-25T07:13:54.198Z,93.50
2018-04-25T07:16:22.455Z,93.00
2018-04-25T07:18:51.514Z,92.80
2018-04-25T07:21:19.772Z,92.70
2018-04-25T07:23:48.148Z,92.50
2018-04-25T07:26:16.368Z,92.00
2018-04-25T07:28:45.393Z,92.10
2018-04-25T07:31:13.704Z,92.10
2018-04-25T07:33:42.088Z,92.00
2018-04-25T07:36:10.343Z,91.90
2018-04-25T07:38:38.870Z,91.10
2018-04-25T07:41:07.940Z,91.90
2018-04-25T07:43:36.213Z,91.80
2018-04-25T07:46:04.503Z,91.80
2018-04-25T07:48:32.745Z,91.70
2018-04-25T07:51:00.977Z,90.40
2018-04-25T07:53:29.262Z,90.30
2018-04-25T07:55:58.345Z,90.30
2018-04-25T07:58:26.627Z,90.80
2018-04-25T08:00:55.653Z,91.10
2018-04-25T08:03:23.924Z,91.10
2018-04-25T08:05:52.196Z,90.80
2018-04-25T08:08:20.459Z,90.20
2018-04-25T08:10:48.736Z,88.50
2018-04-25T08:13:29.212Z,88.10
2018-04-25T08:16:09.466Z,87.20
2018-04-25T08:18:49.667Z,87.20
2018-04-25T08:21:22.351Z,84.40
2018-04-25T08:23:50.660Z,83.10
2018-04-25T08:26:19.682Z,81.50
2018-04-25T08:28:47.937Z,82.20
2018-04-25T08:31:17.033Z,82.70
2018-04-25T08:33:45.285Z,84.10
2018-04-25T08:36:14.352Z,85.00
2018-04-25T08:38:44.561Z,84.90
2018-04-25T08:41:12.825Z,85.80
2018-04-25T08:43:41.852Z,85.00
2018-04-25T08:46:11.240Z,85.40
2018-04-25T08:48:39.502Z,84.00
2018-04-25T08:51:07.736Z,84.10
2018-04-25T08:53:36.049Z,85.40
2018-04-25T08:56:04.300Z,86.30
2018-04-25T08:58:32.608Z,86.00
2018-04-25T09:01:03.646Z,86.20
2018-04-25T09:03:31.864Z,86.50
2018-04-25T09:06:00.965Z,86.90
2018-04-25T09:08:29.978Z,87.80
2018-04-25T09:10:58.284Z,87.80
2018-04-25T09:13:26.570Z,87.20
2018-04-25T09:15:54.816Z,86.30
2018-04-25T09:18:23.081Z,87.10
2018-04-25T09:20:51.326Z,88.60
2018-04-25T09:23:20.362Z,90.00
2018-04-25T09:25:49.911Z,90.00
2018-04-25T09:28:18.152Z,90.30
2018-04-25T09:30:46.384Z,90.20
2018-04-25T09:33:15.437Z,90.80
2018-04-25T09:35:43.800Z,90.80
2018-04-25T09:38:12.059Z,90.80
2018-04-25T09:40:40.392Z,90.20
2018-04-25T09:43:08.578Z,90.80
2018-04-25T09:45:37.633Z,91.90
2018-04-25T09:48:05.863Z,91.90
2018-04-25T09:50:34.148Z,92.70
2018-04-25T09:53:02.436Z,93.70
2018-04-25T09:55:30.733Z,93.90
2018-04-25T09:57:59.022Z,93.90
2018-04-25T10:00:33.833Z,92.70
2018-04-25T10:03:02.069Z,92.60
2018-04-25T10:05:30.317Z,92.40
2018-04-25T10:07:59.731Z,92.50
2018-04-25T10:10:28.063Z,91.90
2018-04-25T10:12:56.328Z,90.30
2018-04-25T10:15:24.617Z,90.50
2018-04-25T10:17:58.204Z,89.60
2018-04-25T10:20:26.514Z,89.60
2018-04-25T10:22:54.769Z,88.90
2018-04-25T10:25:23.060Z,87.80
2018-04-25T10:27:51.343Z,87.60
2018-04-25T10:30:19.728Z,87.20
2018-04-25T10:32:48.092Z,86.40
2018-04-25T10:35:16.355Z,86.00
2018-04-25T10:37:44.649Z,86.00
2018-04-25T10:40:13.077Z,87.20
2018-04-25T10:42:42.126Z,86.60
2018-04-25T10:45:10.415Z,86.50
2018-04-25T10:47:39.477Z,83.00
2018-04-25T10:50:07.733Z,81.60
2018-04-25T10:52:36.064Z,82.40
2018-04-25T10:55:04.408Z,82.20
2018-04-25T10:57:32.690Z,83.30
2018-04-25T11:00:01.739Z,83.80
2018-04-25T11:02:30.858Z,85.30
2018-04-25T11:04:59.053Z,85.30
2018-04-25T11:07:27.430Z,85.90
2018-04-25T11:09:55.672Z,86.20
2018-04-25T11:12:24.739Z,86.00
2018-04-25T11:14:53.807Z,86.50
2018-04-25T11:17:22.079Z,85.80
2018-04-25T11:19:50.360Z,84.00
2018-04-25T11:22:18.648Z,81.70
2018-04-25T11:24:46.907Z,81.50
2018-04-25T11:27:15.743Z,79.80
2018-04-25T11:29:44.019Z,81.00
2018-04-25T11:32:12.324Z,81.10
2018-04-25T11:34:41.400Z,81.30
2018-04-25T11:37:11.173Z,82.50
2018-04-25T11:39:39.457Z,82.60
2018-04-25T11:42:07.697Z,82.90
2018-04-25T11:44:35.999Z,82.80
2018-04-25T11:47:04.247Z,83.30
2018-04-25T11:49:32.510Z,84.40
2018-04-25T11:52:00.779Z,85.80
2018-04-25T11:54:29.096Z,86.70
2018-04-25T11:56:57.375Z,86.40
2018-04-25T11:59:25.709Z,85.60
2018-04-25T12:01:54.024Z,85.60
2018-04-25T12:04:22.274Z,86.20
2018-04-25T12:06:50.531Z,86.30
2018-04-25T12:09:18.767Z,86.60
2018-04-25T12:11:47.870Z,84.30
2018-04-25T12:14:17.421Z,84.10
2018-04-25T12:16:45.673Z,84.10
2018-04-25T12:19:13.930Z,83.50
2018-04-25T12:21:42.956Z,85.80
2018-04-25T12:24:11.274Z,85.70
2018-04-25T12:26:39.528Z,84.20
2018-04-25T12:29:07.829Z,80.50
2018-04-25T12:31:36.121Z,79.00
2018-04-25T12:34:04.359Z,78.40
2018-04-25T12:36:32.602Z,79.50
2018-04-25T12:39:00.897Z,80.00
2018-04-25T12:41:29.181Z,80.70
2018-04-25T12:43:57.457Z,82.80
2018-04-25T12:46:25.772Z,84.30
2018-04-25T12:48:53.989Z,85.00
2018-04-25T12:51:22.292Z,84.40
2018-04-25T12:53:50.554Z,84.80
2018-04-25T12:56:18.806Z,83.40
2018-04-25T12:58:47.084Z,82.40
2018-04-25T13:01:15.332Z,84.30
2018-04-25T13:03:43.676Z,82.80
2018-04-25T13:06:11.929Z,81.90
2018-04-25T13:08:40.228Z,82.70
2018-04-25T13:11:08.494Z,83.00
2018-04-25T13:13:36.882Z,82.40
2018-04-25T13:16:05.189Z,82.10
2018-04-25T13:18:34.215Z,76.70
2018-04-25T13:21:02.493Z,76.60
2018-04-25T13:23:32.438Z,77.50
2018-04-25T13:26:00.667Z,77.50
2018-04-25T13:28:28.926Z,77.20
2018-04-25T13:30:57.186Z,78.60
2018-04-25T13:33:25.553Z,78.30
2018-04-25T13:35:53.819Z,78.00
2018-04-25T13:38:22.206Z,78.30
2018-04-25T13:40:51.595Z,77.70
2018-04-25T13:43:19.890Z,76.10
2018-04-25T13:45:48.274Z,75.60
2018-04-25T13:48:16.494Z,76.80
2018-04-25T13:50:44.791Z,77.10
2018-04-25T13:53:13.091Z,76.80
2018-04-25T13:55:41.459Z,75.00
2018-04-25T13:58:10.471Z,75.60
2018-04-25T14:00:38.750Z,73.70
2018-04-25T14:03:07.056Z,73.90
2018-04-25T14:05:36.075Z,76.10
2018-04-25T14:08:04.495Z,76.10
2018-04-25T14:10:32.758Z,76.70
2018-04-25T14:13:01.479Z,74.90
2018-04-25T14:15:29.659Z,73.20
2018-04-25T14:17:59.796Z,72.80
2018-04-25T14:20:30.105Z,73.20
2018-04-25T14:22:59.659Z,73.70
2018-04-25T14:25:27.920Z,73.60
2018-04-25T14:27:56.255Z,75.50
2018-04-25T14:30:24.488Z,75.60
2018-04-25T14:32:52.782Z,77.30
2018-04-25T14:35:21.038Z,75.80
2018-04-25T14:37:49.290Z,74.40
2018-04-25T14:40:17.569Z,76.80
2018-04-25T14:42:45.897Z,77.80
2018-04-25T14:45:14.238Z,80.60
2018-04-25T14:47:42.524Z,79.60
2018-04-25T14:50:12.014Z,79.70
2018-04-25T14:52:40.302Z,80.40
2018-04-25T14:55:08.604Z,81.80
2018-04-25T14:57:36.841Z,79.20
2018-04-25T15:00:06.327Z,78.70
2018-04-25T15:02:35.349Z,77.70
2018-04-25T15:05:03.629Z,77.80
2018-04-25T15:07:33.043Z,76.60
2018-04-25T15:10:01.322Z,77.30
2018-04-25T15:12:29.582Z,76.80
2018-04-25T15:14:57.870Z,77.80
2018-04-25T15:17:26.101Z,77.70
2018-04-25T15:19:54.356Z,76.50
2018-04-25T15:22:23.882Z,76.80
2018-04-25T15:24:52.203Z,77.80
2018-04-25T15:27:20.455Z,78.40
2018-04-25T15:29:48.715Z,78.00
2018-04-25T15:32:18.312Z,78.40
2018-04-25T15:34:46.567Z,78.40
2018-04-25T15:37:14.830Z,80.10
2018-04-25T15:39:43.097Z,78.80
2018-04-25T15:42:11.360Z,78.10
2018-04-25T15:44:39.596Z,79.00
2018-04-25T15:47:07.880Z,78.80
2018-04-25T15:49:36.137Z,77.60
2018-04-25T15:52:05.185Z,79.00
2018-04-25T15:54:33.558Z,79.00
2018-04-25T15:57:01.811Z,78.90
2018-04-25T15:59:30.079Z,77.80
2018-04-25T16:01:59.633Z,78.10
2018-04-25T16:04:27.865Z,79.30
2018-04-25T16:06:56.993Z,79.20
2018-04-25T16:09:25.283Z,78.60
2018-04-25T16:11:53.517Z,79.90
2018-04-25T16:14:21.813Z,80.80
2018-04-25T16:16:50.125Z,81.40
2018-04-25T16:19:18.733Z,82.40
2018-04-25T16:21:47.767Z,82.00
2018-04-25T16:24:16.960Z,81.90
2018-04-25T16:26:45.224Z,80.80
2018-04-25T16:29:13.474Z,80.80
2018-04-25T16:31:41.738Z,79.10
2018-04-25T16:34:10.811Z,79.40
2018-04-25T16:36:39.071Z,79.40
2018-04-25T16:39:07.344Z,80.30
2018-04-25T16:41:36.428Z,79.40
2018-04-25T16:44:04.719Z,80.20
2018-04-25T16:46:32.953Z,82.60
2018-04-25T16:49:01.264Z,84.50
2018-04-25T16:51:30.254Z,84.80
2018-04-25T16:53:58.495Z,84.70
2018-04-25T16:56:27.521Z,87.00
2018-04-25T16:58:55.773Z,86.90
2018-04-25T17:01:24.038Z,87.00
2018-04-25T17:03:52.347Z,85.80
2018-04-25T17:06:20.592Z,85.80
2018-04-25T17:08:48.849Z,85.50
2018-04-25T17:11:17.908Z,86.20
2018-04-25T17:13:46.183Z,86.10
2018-04-25T17:16:14.455Z,86.40
2018-04-25T17:18:42.730Z,86.60
2018-04-25T17:21:11.039Z,86.80
2018-04-25T17:23:39.278Z,85.70
2018-04-25T17:26:07.689Z,85.50
2018-04-25T17:28:36.765Z,85.20
2018-04-25T17:31:05.059Z,85.10
2018-04-25T17:33:33.317Z,85.30
2018-04-25T17:36:01.600Z,83.90
2018-04-25T17:38:29.886Z,85.20
2018-04-25T17:40:58.621Z,85.80
2018-04-25T17:43:26.918Z,85.50
2018-04-25T17:45:55.272Z,85.60
2018-04-25T17:48:23.536Z,85.90
2018-04-25T17:50:51.800Z,86.60
2018-04-25T17:53:20.841Z,85.50
2018-04-25T17:55:49.129Z,85.50
2018-04-25T17:58:17.376Z,86.30
2018-04-25T18:00:45.756Z,85.30
2018-04-25T18:03:14.127Z,85.70
2018-04-25T18:05:42.360Z,86.90
2018-04-25T18:08:11.413Z,87.30
2018-04-25T18:10:39.669Z,87.30
2018-04-25T18:13:07.987Z,88.10
2018-04-25T18:15:36.268Z,88.30
2018-04-25T18:18:04.603Z,88.80
2018-04-25T18:20:32.851Z,89.90
2018-04-25T18:23:02.103Z,90.50
2018-04-25T18:25:30.485Z,91.20
2018-04-25T18:27:58.761Z,91.50
2018-04-25T18:30:27.054Z,91.50
2018-04-25T18:32:55.313Z,91.90
2018-04-25T18:35:23.612Z,92.00
2018-04-25T18:37:52.761Z,92.00
2018-04-25T18:40:21.030Z,91.70
2018-04-25T18:42:49.349Z,92.00
2018-04-25T18:45:17.618Z,92.80
2018-04-25T18:47:45.946Z,93.10
2018-04-25T18:50:15.004Z,92.90
2018-04-25T18:52:43.266Z,92.80
2018-04-25T18:55:11.628Z,92.90
2018-04-25T18:57:39.959Z,93.10
2018-04-25T19:00:08.996Z,93.00
2018-04-25T19:02:37.290Z,93.30
2018-04-25T19:05:05.611Z,93.90
2018-04-25T19:07:34.652Z,94.60
2018-04-25T19:10:03.090Z,94.60
2018-04-25T19:12:31.319Z,94.90
2018-04-25T19:14:59.703Z,95.20
2018-04-25T19:17:28.022Z,95.20
2018-04-25T19:19:56.365Z,94.90
2018-04-25T19:22:24.688Z,94.30
2018-04-25T19:24:54.236Z,94.70
2018-04-25T19:27:22.544Z,94.60
2018-04-25T19:29:50.799Z,93.90
2018-04-25T19:32:19.244Z,94.20
2018-04-25T19:34:48.275Z,94.50
2018-04-25T19:37:16.575Z,94.50
2018-04-25T19:39:44.904Z,94.20
2018-04-25T19:42:13.168Z,94.40
2018-04-25T19:44:41.510Z,94.60
2018-04-25T19:47:10.654Z,94.70
2018-04-25T19:49:39.705Z,94.70
2018-04-25T19:52:08.725Z,94.50
2018-04-25T19:54:37.018Z,94.50
2018-04-25T19:57:05.313Z,94.50
2018-04-25T19:59:33.585Z,94.70
2018-04-25T20:02:01.861Z,94.60
2018-04-25T20:04:30.123Z,94.00
2018-04-25T20:06:58.675Z,94.20
2018-04-25T20:09:26.997Z,93.90
2018-04-25T20:11:55.387Z,93.80
2018-04-25T20:14:23.684Z,93.80
2018-04-25T20:16:52.744Z,94.20
2018-04-25T20:19:21.031Z,94.20
2018-04-25T20:21:49.319Z,93.80
2018-04-25T20:24:18.378Z,93.80
2018-04-25T20:26:46.781Z,93.80
2018-04-25T20:29:15.075Z,93.50
2018-04-25T20:31:44.087Z,93.60
2018-04-25T20:34:12.426Z,93.60
2018-04-25T20:36:40.656Z,94.10
2018-04-25T20:39:10.323Z,94.20
2018-04-25T20:41:38.547Z,93.80
2018-04-25T20:44:06.842Z,94.00
2018-04-25T20:46:35.120Z,94.70
2018-04-25T20:49:03.357Z,94.90
2018-04-25T20:51:31.653Z,94.90
2018-04-25T20:53:59.901Z,95.20
2018-04-25T20:56:29.009Z,95.20
2018-04-25T20:58:57.274Z,95.40
2018-04-25T21:01:25.540Z,95.40
2018-04-25T21:03:54.529Z,95.60
2018-04-25T21:06:23.546Z,95.70
2018-04-25T21:08:51.808Z,95.70
2018-04-25T21:11:20.103Z,95.80
2018-04-25T21:13:48.341Z,95.90
2018-04-25T21:16:19.445Z,96.20
2018-04-25T21:18:47.703Z,96.20
2018-04-25T21:21:15.973Z,96.30
2018-04-25T21:23:44.217Z,96.50
2018-04-25T21:26:13.257Z,96.90
2018-04-25T21:28:41.514Z,96.80
2018-04-25T21:31:09.794Z,97.00
2018-04-25T21:33:38.032Z,97.10
2018-04-25T21:36:07.958Z,97.20
2018-04-25T21:38:36.980Z,97.30
2018-04-25T21:41:05.248Z,97.30
2018-04-25T21:43:33.493Z,97.40
2018-04-25T21:46:03.692Z,97.50
2018-04-25T21:48:32.769Z,97.50
2018-04-25T21:51:01.001Z,97.70
2018-04-25T21:53:29.250Z,97.70
2018-04-25T21:55:57.515Z,97.80
2018-04-25T21:58:25.740Z,97.80
2018-04-25T22:00:54.193Z,97.80
2018-04-25T22:03:23.211Z,97.90
2018-04-25T22:05:51.545Z,97.90
2018-04-25T22:08:19.807Z,97.80
2018-04-25T22:10:48.224Z,97.60
2018-04-25T22:13:17.281Z,97.90
2018-04-25T22:15:45.557Z,97.90
2018-04-25T22:18:13.812Z,98.00
2018-04-25T22:20:42.825Z,98.10
2018-04-25T22:23:11.454Z,98.30
2018-04-25T22:25:40.464Z,98.40
2018-04-25T22:28:08.711Z,98.40
2018-04-25T22:30:37.153Z,98.40
2018-04-25T22:33:05.535Z,98.40
2018-04-25T22:35:34.720Z,98.40
2018-04-25T22:38:02.992Z,98.60
2018-04-25T22:40:31.252Z,98.60
2018-04-25T22:42:59.527Z,98.50
2018-04-25T22:45:27.973Z,98.60
2018-04-25T22:47:56.319Z,98.60
2018-04-25T22:50:24.591Z,98.60
2018-04-25T22:52:52.846Z,98.70
2018-04-25T22:55:21.128Z,98.70
2018-04-25T22:57:49.361Z,98.70
2018-04-25T23:00:19.337Z,98.50
2018-04-25T23:02:47.417Z,98.30
2018-04-25T23:05:15.649Z,98.40
2018-04-25T23:07:43.918Z,98.30
2018-04-25T23:10:13.871Z,98.30
2018-04-25T23:12:42.149Z,98.30
2018-04-25T23:15:10.394Z,98.30
2018-04-25T23:17:38.636Z,98.40
2018-04-25T23:20:06.874Z,98.50
2018-04-25T23:22:35.119Z,98.50
2018-04-25T23:25:03.430Z,98.20
2018-04-25T23:27:31.703Z,98.10
2018-04-25T23:30:00.052Z,98.00
2018-04-25T23:32:28.313Z,97.90
2018-04-25T23:34:56.567Z,97.90
2018-04-25T23:37:26.771Z,97.80
2018-04-25T23:39:56.525Z,97.80
2018-04-25T23:42:24.780Z,97.80
2018-04-25T23:44:53.015Z,97.90
2018-04-25T23:47:21.291Z,97.80
2018-04-25T23:49:50.359Z,98.00
2018-04-25T23:52:18.629Z,98.10
2018-04-25T23:54:46.892Z,98.30
2018-04-25T23:57:15.158Z,98.50
2018-04-25T23:59:44.662Z,98.40
